Jack Brusco — WDC3066 — position and weather

sailwx.info

Track history (hours):
 
Tides and Currents Weather Stations Pressure Air Temp Water Temp Dewpoint Dewpoint Depression Visibility Wind Speed Wind Dir Waves Ship Positions

Jack Brusco

Owner: Brusco Tug & Barge, Inc., Longview, WA. More information available from US FCC via Universal Licensing System and Coast Guard Vessel Documentation Center.

Last reported at 2018-Jan-12 15:00 UTC. Time now 2018-Jan-19 09:54 UTC.
Position N 46°13' W 123°57'.

Length 36 m; draft 5.2 m.

Type: Tug. MMSI: 3699086.

Date/timePositionNaut miles runAvg speedWind from/ knotsBaromVisibWave heightAir tempDewpointWater temp
2018-Jan-12 15:00N 46°13' W 123°57'2 2.2
2018-Jan-12 14:14N 46°14' W 123°59'1 4.9
2018-Jan-12 14:00N 46°13' W 123°58'3 5.3
2018-Jan-12 13:31N 46°11' W 123°55'3 5.3
2018-Jan-12 13:00N 46°12' W 123°51'3 5.3
2018-Jan-12 12:30N 46°13' W 123°47'3 5.6
2018-Jan-12 12:00N 46°14' W 123°44'3 6.0
2018-Jan-12 11:30N 46°15' W 123°40'3 6.8
2018-Jan-12 11:00N 46°15' W 123°35'3 6.7
2018-Jan-12 10:31N 46°16' W 123°30'3 6.2
2018-Jan-12 10:00N 46°15' W 123°26'3 6.6
2018-Jan-12 09:30N 46°12' W 123°26'3 6.5
2018-Jan-12 09:00N 46°09' W 123°23'3 6.6
2018-Jan-12 08:30N 46°09' W 123°18'3 6.6
2018-Jan-12 08:01N 46°10' W 123°14'3 6.6
2018-Jan-12 07:30N 46°11' W 123°09'3 6.3
2018-Jan-12 07:00N 46°10' W 123°05'3 6.9
2018-Jan-12 06:31N 46°08' W 123°01'2 4.9
2018-Jan-12 06:01N 46°07' W 122°58'5 4.6
2018-Jan-12 04:58N 46°10' W 123°04'510.1
2018-Jan-12 04:31N 46°11' W 123°10'510.3
2018-Jan-12 04:00N 46°09' W 123°17'510.2
2018-Jan-12 03:30N 46°10' W 123°24'3 6.0
2018-Jan-12 03:00N 46°13' W 123°24'1 1.9
2018-Jan-12 02:30N 46°12' W 123°23'0 0.0
2018-Jan-12 02:00N 46°12' W 123°23'  
Track history (hours):
 
Tides and Currents Weather Stations Pressure Air Temp Water Temp Dewpoint Dewpoint Depression Visibility Wind Speed Wind Dir Waves Ship Positions

Jack Brusco

Owner: Brusco Tug & Barge, Inc., Longview, WA. More information available from US FCC via Universal Licensing System and Coast Guard Vessel Documentation Center.

Last reported at 2018-Jan-12 15:00 UTC. Time now 2018-Jan-19 09:54 UTC.
Position N 46°13' W 123°57'.

Length 36 m; draft 5.2 m.

Type: Tug. MMSI: 3699086.

Date/timePositionNaut miles runAvg speedWind from/ knotsBaromVisibWave heightAir tempDewpointWater temp
2018-Jan-12 15:00N 46°13' W 123°57'2 2.2
2018-Jan-12 14:14N 46°14' W 123°59'1 4.9
2018-Jan-12 14:00N 46°13' W 123°58'3 5.3
2018-Jan-12 13:31N 46°11' W 123°55'3 5.3
2018-Jan-12 13:00N 46°12' W 123°51'3 5.3
2018-Jan-12 12:30N 46°13' W 123°47'3 5.6
2018-Jan-12 12:00N 46°14' W 123°44'3 6.0
2018-Jan-12 11:30N 46°15' W 123°40'3 6.8
2018-Jan-12 11:00N 46°15' W 123°35'3 6.7
2018-Jan-12 10:31N 46°16' W 123°30'3 6.2
2018-Jan-12 10:00N 46°15' W 123°26'3 6.6
2018-Jan-12 09:30N 46°12' W 123°26'3 6.5
2018-Jan-12 09:00N 46°09' W 123°23'3 6.6
2018-Jan-12 08:30N 46°09' W 123°18'3 6.6
2018-Jan-12 08:01N 46°10' W 123°14'3 6.6
2018-Jan-12 07:30N 46°11' W 123°09'3 6.3
2018-Jan-12 07:00N 46°10' W 123°05'3 6.9
2018-Jan-12 06:31N 46°08' W 123°01'2 4.9
2018-Jan-12 06:01N 46°07' W 122°58'5 4.6
2018-Jan-12 04:58N 46°10' W 123°04'510.1
2018-Jan-12 04:31N 46°11' W 123°10'510.3
2018-Jan-12 04:00N 46°09' W 123°17'510.2
2018-Jan-12 03:30N 46°10' W 123°24'3 6.0
2018-Jan-12 03:00N 46°13' W 123°24'1 1.9
2018-Jan-12 02:30N 46°12' W 123°23'0 0.0
2018-Jan-12 02:00N 46°12' W 123°23'  

Dump ship's entire track history